createdAt,value
2022-08-11T00:00:32.964Z,24.93
2022-08-11T00:03:03.778Z,26.62
2022-08-11T00:05:30.919Z,26.82
2022-08-11T00:07:58.025Z,26.01
2022-08-11T00:10:26.396Z,25.84
2022-08-11T00:12:56.854Z,25.79
2022-08-11T00:15:24.197Z,26.03
2022-08-11T00:17:57.058Z,25.88
2022-08-11T00:20:24.989Z,25.67
2022-08-11T00:22:52.369Z,25.75
2022-08-11T00:25:20.356Z,25.89
2022-08-11T00:27:47.994Z,26.06
2022-08-11T00:30:15.860Z,26.06
2022-08-11T00:32:44.107Z,25.74
2022-08-11T00:35:56.047Z,25.84
2022-08-11T00:37:59.709Z,25.74
2022-08-11T00:40:46.045Z,26.88
2022-08-11T00:43:20.232Z,26.57
2022-08-11T00:46:06.917Z,26.30
2022-08-11T00:48:36.789Z,26.63
2022-08-11T00:51:14.357Z,26.77
2022-08-11T00:53:44.788Z,26.23
2022-08-11T00:56:23.359Z,26.25
2022-08-11T00:58:59.941Z,26.24
2022-08-11T01:01:28.311Z,26.30
2022-08-11T01:04:01.762Z,26.31
2022-08-11T01:06:38.444Z,26.70
2022-08-11T01:09:17.790Z,26.83
2022-08-11T01:11:56.035Z,26.74
2022-08-11T01:14:43.676Z,26.11
2022-08-11T01:17:30.453Z,26.25
2022-08-11T01:20:48.022Z,26.22
2022-08-11T01:22:56.577Z,26.41
2022-08-11T01:25:57.676Z,26.42
2022-08-11T01:28:44.902Z,26.45
2022-08-11T01:31:23.751Z,27.65
2022-08-11T01:34:03.750Z,26.58
2022-08-11T01:36:38.599Z,27.67
2022-08-11T01:39:18.462Z,27.33
2022-08-11T01:42:15.219Z,27.84
2022-08-11T01:44:52.979Z,27.58
2022-08-11T01:47:52.601Z,27.19
2022-08-11T01:50:24.916Z,26.95
2022-08-11T01:52:58.609Z,26.19
2022-08-11T01:55:29.127Z,26.88
2022-08-11T01:58:03.242Z,26.60
2022-08-11T02:00:32.386Z,26.77
2022-08-11T02:03:12.154Z,26.45
2022-08-11T02:05:49.443Z,27.06
2022-08-11T02:08:47.582Z,26.93
2022-08-11T02:11:37.680Z,27.14
2022-08-11T02:14:28.971Z,26.72
2022-08-11T02:17:03.473Z,26.73
2022-08-11T02:19:57.774Z,26.15
2022-08-11T02:22:49.234Z,26.11
2022-08-11T02:25:30.360Z,27.18
2022-08-11T02:27:58.697Z,26.58
2022-08-11T02:30:28.257Z,26.92
2022-08-11T02:33:17.674Z,27.00
2022-08-11T02:35:47.845Z,27.17
2022-08-11T02:38:26.823Z,26.43
2022-08-11T02:40:55.601Z,27.30
2022-08-11T02:43:27.030Z,27.14
2022-08-11T02:45:55.871Z,27.68
2022-08-11T02:48:42.580Z,27.87
2022-08-11T02:51:15.253Z,27.16
2022-08-11T02:53:58.276Z,27.38
2022-08-11T02:56:33.071Z,27.61
2022-08-11T02:59:25.932Z,27.59
2022-08-11T03:02:04.913Z,27.35
2022-08-11T03:04:51.936Z,27.30
2022-08-11T03:07:28.471Z,27.55
2022-08-11T03:10:07.097Z,27.24
2022-08-11T03:13:01.027Z,26.93
2022-08-11T03:15:48.195Z,26.97
2022-08-11T03:18:18.719Z,27.37
2022-08-11T03:20:52.182Z,27.62
2022-08-11T03:23:37.923Z,27.53
2022-08-11T03:26:15.892Z,27.22
2022-08-11T03:28:52.046Z,27.25
2022-08-11T03:31:24.840Z,27.31
2022-08-11T03:34:07.019Z,27.96
2022-08-11T03:37:15.731Z,27.82
2022-08-11T03:39:52.690Z,27.90
2022-08-11T03:42:27.991Z,28.39
2022-08-11T03:45:10.879Z,29.12
2022-08-11T03:47:56.498Z,28.36
2022-08-11T03:50:32.854Z,27.82
2022-08-11T03:53:05.583Z,28.50
2022-08-11T03:55:45.800Z,28.78
2022-08-11T03:58:22.396Z,28.33
2022-08-11T04:00:52.776Z,28.78
2022-08-11T04:03:31.470Z,28.99
2022-08-11T04:06:17.715Z,28.62
2022-08-11T04:08:51.478Z,28.92
2022-08-11T04:11:21.684Z,29.15
2022-08-11T04:14:28.097Z,28.90
2022-08-11T04:17:13.706Z,28.03
2022-08-11T04:19:50.439Z,28.09
2022-08-11T04:22:39.117Z,28.10
2022-08-11T04:25:06.568Z,28.10
2022-08-11T04:27:52.612Z,28.68
2022-08-11T04:30:28.761Z,28.73
2022-08-11T04:33:10.406Z,28.50
2022-08-11T04:35:56.145Z,28.70
2022-08-11T04:38:26.366Z,27.91
2022-08-11T04:41:15.106Z,27.18
2022-08-11T04:44:06.375Z,27.67
2022-08-11T04:46:42.709Z,27.22
2022-08-11T04:49:35.553Z,26.38
2022-08-11T04:52:40.880Z,25.91
2022-08-11T04:55:39.237Z,24.97
2022-08-11T04:58:31.213Z,25.72
2022-08-11T05:01:23.534Z,24.79
2022-08-11T05:04:05.049Z,25.87
2022-08-11T05:06:41.436Z,24.82
2022-08-11T05:09:17.866Z,24.39
2022-08-11T05:12:03.925Z,23.76
2022-08-11T05:14:54.118Z,23.31
2022-08-11T05:17:58.625Z,23.17
2022-08-11T05:20:44.656Z,23.45
2022-08-11T05:23:30.508Z,22.77
2022-08-11T05:26:46.182Z,23.39
2022-08-11T05:29:23.464Z,24.01
2022-08-11T05:32:16.166Z,23.02
2022-08-11T05:34:51.847Z,23.81
2022-08-11T05:37:27.669Z,23.02
2022-08-11T05:40:23.029Z,22.68
2022-08-11T05:43:09.676Z,23.77
2022-08-11T05:46:03.005Z,23.34
2022-08-11T05:48:54.282Z,23.63
2022-08-11T05:51:52.291Z,23.50
2022-08-11T05:54:42.514Z,24.08
2022-08-11T05:57:49.990Z,23.64
2022-08-11T06:00:10.354Z,23.44
2022-08-11T06:02:41.946Z,23.06
2022-08-11T06:05:09.267Z,24.68
2022-08-11T06:07:48.723Z,26.21
2022-08-11T06:10:30.085Z,25.60
2022-08-11T06:12:57.533Z,24.47
2022-08-11T06:15:24.698Z,26.35
2022-08-11T06:17:52.056Z,26.10
2022-08-11T06:20:19.696Z,26.55
2022-08-11T06:22:52.460Z,24.93
2022-08-11T06:25:20.524Z,25.62
2022-08-11T06:27:48.821Z,26.68
2022-08-11T06:30:16.021Z,25.79
2022-08-11T06:32:44.747Z,25.62
2022-08-11T06:35:27.058Z,25.08
2022-08-11T06:38:03.847Z,25.93
2022-08-11T06:40:37.553Z,25.24
2022-08-11T06:43:04.892Z,24.87
2022-08-11T06:45:41.062Z,25.34
2022-08-11T06:48:14.996Z,23.87
2022-08-11T06:51:00.709Z,26.66
2022-08-11T06:53:28.163Z,26.28
2022-08-11T06:56:14.288Z,24.28
2022-08-11T06:59:00.568Z,26.91
2022-08-11T07:01:28.705Z,25.77
2022-08-11T07:03:58.442Z,24.76
2022-08-11T07:06:34.538Z,24.58
2022-08-11T07:10:00.070Z,25.28
2022-08-11T07:12:55.416Z,24.86
2022-08-11T07:16:08.959Z,25.01
2022-08-11T07:18:51.913Z,23.63
2022-08-11T07:22:00.066Z,24.17
2022-08-11T07:25:01.817Z,24.88
2022-08-11T07:27:50.563Z,22.30
2022-08-11T07:30:17.873Z,22.96
2022-08-11T07:32:46.933Z,23.63
2022-08-11T07:35:16.852Z,23.93
2022-08-11T07:38:01.924Z,23.59
2022-08-11T07:40:30.530Z,24.62
2022-08-11T07:42:57.702Z,23.70
2022-08-11T07:45:43.762Z,23.73
2022-08-11T07:48:30.091Z,23.86
2022-08-11T07:51:15.911Z,22.90
2022-08-11T07:53:58.446Z,24.66
2022-08-11T07:56:54.422Z,23.19
2022-08-11T08:00:04.167Z,23.32
2022-08-11T08:02:44.631Z,24.18
2022-08-11T08:05:30.872Z,22.43
2022-08-11T08:08:17.328Z,22.90
2022-08-11T08:11:03.558Z,22.76
2022-08-11T08:13:51.175Z,22.15
2022-08-11T08:16:37.393Z,22.43
2022-08-11T08:19:04.657Z,22.81
2022-08-11T08:21:32.224Z,22.18
2022-08-11T08:23:59.413Z,22.75
2022-08-11T08:26:51.265Z,22.29
2022-08-11T08:29:38.079Z,23.02
2022-08-11T08:32:05.891Z,22.56
2022-08-11T08:34:33.912Z,21.60
2022-08-11T08:37:01.139Z,21.37
2022-08-11T08:39:28.542Z,22.10
2022-08-11T08:41:57.821Z,22.12
2022-08-11T08:44:42.038Z,23.54
2022-08-11T08:47:41.008Z,22.93
2022-08-11T08:50:04.345Z,22.89
2022-08-11T08:52:39.467Z,22.58
2022-08-11T08:55:07.883Z,22.55
2022-08-11T08:57:39.318Z,22.66
2022-08-11T09:00:07.527Z,22.88
2022-08-11T09:02:36.913Z,21.54
2022-08-11T09:05:04.658Z,22.27
2022-08-11T09:07:39.789Z,20.83
2022-08-11T09:10:09.089Z,21.84
2022-08-11T09:12:38.783Z,21.50
2022-08-11T09:15:09.126Z,21.37
2022-08-11T09:17:50.683Z,21.58
2022-08-11T09:20:29.259Z,21.77
2022-08-11T09:26:22.309Z,21.44
2022-08-11T09:28:58.251Z,21.65
2022-08-11T09:31:26.830Z,20.09
2022-08-11T09:33:54.368Z,20.66
2022-08-11T09:36:40.635Z,20.59
2022-08-11T09:39:26.871Z,21.31
2022-08-11T09:42:00.519Z,21.51
2022-08-11T09:44:49.370Z,21.62
2022-08-11T09:47:26.903Z,21.96
2022-08-11T09:49:56.236Z,21.87
2022-08-11T09:52:23.714Z,20.68
2022-08-11T09:54:50.873Z,21.17
2022-08-11T09:57:40.129Z,20.63
2022-08-11T10:00:12.537Z,20.86
2022-08-11T10:02:45.814Z,20.06
2022-08-11T10:05:35.897Z,18.44
2022-08-11T10:08:03.856Z,18.48
2022-08-11T10:10:31.035Z,17.46
2022-08-11T10:12:59.981Z,18.21
2022-08-11T10:15:38.423Z,19.04
2022-08-11T10:18:34.869Z,19.17
2022-08-11T10:21:05.276Z,17.83
2022-08-11T10:24:00.995Z,18.41
2022-08-11T10:26:54.256Z,19.61
2022-08-11T10:29:45.181Z,21.25
2022-08-11T10:32:58.366Z,20.95
2022-08-11T10:35:31.008Z,20.65
2022-08-11T10:38:08.395Z,19.62
2022-08-11T10:40:40.226Z,19.26
2022-08-11T10:43:10.617Z,20.43
2022-08-11T10:45:57.136Z,21.00
2022-08-11T10:48:25.799Z,19.75
2022-08-11T10:51:11.726Z,19.05
2022-08-11T10:54:00.072Z,18.78
2022-08-11T10:56:46.787Z,17.85
2022-08-11T10:59:14.200Z,18.21
2022-08-11T11:01:44.054Z,19.24
2022-08-11T11:04:12.974Z,18.33
2022-08-11T11:06:46.284Z,18.31
2022-08-11T11:09:18.154Z,17.60
2022-08-11T11:12:06.870Z,18.24
2022-08-11T11:14:58.279Z,18.17
2022-08-11T11:17:48.932Z,17.84
2022-08-11T11:20:34.771Z,19.57
2022-08-11T11:23:06.601Z,18.22
2022-08-11T11:25:37.661Z,18.10
2022-08-11T11:28:25.355Z,17.63
2022-08-11T11:31:04.825Z,17.90
2022-08-11T11:33:32.196Z,16.63
2022-08-11T11:36:07.747Z,16.30
2022-08-11T11:38:35.156Z,15.55
2022-08-11T11:41:21.125Z,16.85
2022-08-11T11:43:48.596Z,15.30
2022-08-11T11:46:15.772Z,16.51
2022-08-11T11:48:42.948Z,16.77
2022-08-11T11:51:14.109Z,16.12
2022-08-11T11:53:45.468Z,16.61
2022-08-11T11:56:12.916Z,16.62
2022-08-11T11:59:00.845Z,16.64
2022-08-11T12:01:28.289Z,16.55
2022-08-11T12:03:55.891Z,17.53
2022-08-11T12:06:23.457Z,17.52
2022-08-11T12:08:52.064Z,17.88
2022-08-11T12:11:38.673Z,16.62
2022-08-11T12:14:10.305Z,16.11
2022-08-11T12:16:44.238Z,15.83
2022-08-11T12:19:18.148Z,17.17
2022-08-11T12:22:04.507Z,17.01
2022-08-11T12:24:55.431Z,17.25
2022-08-11T12:27:25.489Z,17.60
2022-08-11T12:30:08.526Z,17.32
2022-08-11T12:32:36.571Z,18.08
2022-08-11T12:35:04.260Z,17.86
2022-08-11T12:37:50.304Z,17.80
2022-08-11T12:40:56.428Z,17.57
2022-08-11T12:43:43.271Z,17.76
2022-08-11T12:46:12.643Z,17.60
2022-08-11T12:49:05.432Z,17.42
2022-08-11T12:52:12.173Z,17.14
2022-08-11T12:54:39.825Z,18.34
2022-08-11T12:57:37.356Z,19.13
2022-08-11T13:00:24.227Z,19.22
2022-08-11T13:03:10.641Z,18.27
2022-08-11T13:05:44.273Z,17.66
2022-08-11T13:08:14.395Z,17.34
2022-08-11T13:11:00.330Z,18.06
2022-08-11T13:13:54.907Z,17.85
2022-08-11T13:16:16.050Z,16.92
2022-08-11T13:18:43.491Z,17.68
2022-08-11T13:21:20.624Z,17.79
2022-08-11T13:24:00.895Z,16.77
2022-08-11T13:26:47.274Z,17.49
2022-08-11T13:29:18.569Z,17.53
2022-08-11T13:31:46.010Z,18.32
2022-08-11T13:34:13.309Z,17.78
2022-08-11T13:36:40.835Z,17.76
2022-08-11T13:39:08.140Z,18.58
2022-08-11T13:41:39.250Z,17.96
2022-08-11T13:44:07.203Z,17.55
2022-08-11T13:46:34.430Z,18.39
2022-08-11T13:49:02.342Z,18.10
2022-08-11T13:51:35.873Z,18.19
2022-08-11T13:54:06.131Z,17.32
2022-08-11T13:56:34.376Z,17.21
2022-08-11T13:59:02.436Z,18.35
2022-08-11T14:02:03.841Z,17.79
2022-08-11T14:04:39.534Z,19.70
2022-08-11T14:07:07.395Z,19.59
2022-08-11T14:09:39.707Z,21.10
2022-08-11T14:12:31.753Z,19.58
2022-08-11T14:15:08.143Z,20.19
2022-08-11T14:17:48.329Z,20.46
2022-08-11T14:20:40.002Z,20.00
2022-08-11T14:23:04.437Z,19.58
2022-08-11T14:26:00.492Z,19.79
2022-08-11T14:28:32.598Z,19.45
2022-08-11T14:31:02.699Z,19.95
2022-08-11T14:33:58.460Z,19.00
2022-08-11T14:36:18.543Z,19.55
2022-08-11T14:38:45.715Z,19.40
2022-08-11T14:41:31.778Z,19.56
2022-08-11T14:44:17.976Z,19.85
2022-08-11T14:47:03.798Z,19.96
2022-08-11T14:49:37.562Z,19.55
2022-08-11T14:52:23.430Z,19.10
2022-08-11T14:55:10.672Z,19.06
2022-08-11T14:57:54.977Z,18.76
2022-08-11T15:00:24.089Z,18.73
2022-08-11T15:03:13.686Z,19.14
2022-08-11T15:05:54.239Z,19.11
2022-08-11T15:08:48.213Z,19.14
2022-08-11T15:11:34.965Z,18.97
2022-08-11T15:14:03.566Z,18.71
2022-08-11T15:16:49.512Z,18.40
2022-08-11T15:19:16.738Z,19.08
2022-08-11T15:22:02.910Z,19.44
2022-08-11T15:24:30.962Z,19.60
2022-08-11T15:27:17.447Z,19.77
2022-08-11T15:30:32.336Z,20.16
2022-08-11T15:33:21.763Z,19.41
2022-08-11T15:36:07.601Z,19.45
2022-08-11T15:38:36.366Z,19.49
2022-08-11T15:41:22.086Z,19.36
2022-08-11T15:44:08.571Z,18.65
2022-08-11T15:46:39.818Z,20.57
2022-08-11T15:49:22.011Z,18.66
2022-08-11T15:51:50.866Z,19.06
2022-08-11T15:54:18.974Z,19.13
2022-08-11T15:56:46.773Z,19.88
2022-08-11T15:59:41.883Z,19.62
2022-08-11T16:02:34.432Z,19.33
2022-08-11T16:05:04.171Z,20.12
2022-08-11T16:07:34.305Z,19.65
2022-08-11T16:10:10.797Z,19.46
2022-08-11T16:13:03.609Z,18.92
2022-08-11T16:15:56.999Z,18.95
2022-08-11T16:18:40.472Z,19.17
2022-08-11T16:21:26.131Z,19.61
2022-08-11T16:23:59.778Z,18.80
2022-08-11T16:27:07.646Z,18.64
2022-08-11T16:29:14.358Z,19.35
2022-08-11T16:31:42.117Z,18.16
2022-08-11T16:34:32.131Z,18.32
2022-08-11T16:37:18.487Z,18.07
2022-08-11T16:39:45.906Z,18.11
2022-08-11T16:43:08.752Z,18.32
2022-08-11T16:45:46.828Z,18.44
2022-08-11T16:48:33.480Z,18.50
2022-08-11T16:51:01.525Z,18.95
2022-08-11T16:53:47.359Z,18.58
2022-08-11T16:56:18.957Z,18.72
2022-08-11T16:59:22.942Z,18.74
2022-08-11T17:01:56.556Z,20.05
2022-08-11T17:05:00.532Z,19.54
2022-08-11T17:07:46.308Z,20.27
2022-08-11T17:10:50.918Z,20.38
2022-08-11T17:13:20.626Z,19.79
2022-08-11T17:16:07.367Z,20.78
2022-08-11T17:18:40.726Z,20.31
2022-08-11T17:21:08.692Z,20.57
2022-08-11T17:23:48.145Z,20.29
2022-08-11T17:26:20.346Z,21.20
2022-08-11T17:28:51.393Z,20.42
2022-08-11T17:31:40.592Z,20.93
2022-08-11T17:34:26.687Z,21.24
2022-08-11T17:36:54.250Z,21.79
2022-08-11T17:39:21.972Z,24.63
2022-08-11T17:42:09.540Z,24.85
2022-08-11T17:44:57.976Z,24.20
2022-08-11T17:47:43.838Z,22.98
2022-08-11T17:50:17.002Z,23.45
2022-08-11T17:53:04.052Z,23.66
2022-08-11T17:55:53.203Z,24.13
2022-08-11T17:58:39.410Z,25.12
2022-08-11T18:01:09.513Z,25.56
2022-08-11T18:03:39.869Z,25.74
2022-08-11T18:06:12.591Z,25.71
2022-08-11T18:08:59.918Z,24.83
2022-08-11T18:12:10.578Z,24.62
2022-08-11T18:14:52.352Z,24.73
2022-08-11T18:17:41.109Z,24.57
2022-08-11T18:20:30.537Z,24.28
2022-08-11T18:23:16.476Z,24.96
2022-08-11T18:26:07.249Z,25.22
2022-08-11T18:28:58.885Z,25.23
2022-08-11T18:31:45.120Z,24.79
2022-08-11T18:34:32.591Z,24.70
2022-08-11T18:37:20.075Z,25.71
2022-08-11T18:40:15.962Z,24.75
2022-08-11T18:43:02.404Z,24.64
2022-08-11T18:45:48.362Z,24.52
2022-08-11T18:48:51.606Z,23.76
2022-08-11T18:51:38.026Z,23.99
2022-08-11T18:54:25.842Z,23.78
2022-08-11T18:57:11.786Z,23.90
2022-08-11T18:59:59.627Z,23.57
2022-08-11T19:02:49.136Z,23.66
2022-08-11T19:06:31.665Z,23.80
2022-08-11T19:08:42.712Z,23.78
2022-08-11T19:11:28.813Z,23.79
2022-08-11T19:14:14.903Z,23.67
2022-08-11T19:17:01.077Z,24.68
2022-08-11T19:19:47.766Z,24.28
2022-08-11T19:22:34.417Z,23.32
2022-08-11T19:25:25.328Z,23.50
2022-08-11T19:28:12.154Z,23.42
2022-08-11T19:30:58.168Z,22.66
2022-08-11T19:34:02.849Z,23.55
2022-08-11T19:36:50.609Z,23.50
2022-08-11T19:39:37.867Z,23.31
2022-08-11T19:42:24.891Z,23.21
2022-08-11T19:45:11.172Z,23.59
2022-08-11T19:48:20.781Z,23.41
2022-08-11T19:51:03.350Z,23.15
2022-08-11T19:53:51.395Z,23.23
2022-08-11T19:56:37.761Z,22.88
2022-08-11T19:59:23.636Z,23.68
2022-08-11T20:02:14.284Z,23.70
2022-08-11T20:05:00.979Z,23.94
2022-08-11T20:07:46.915Z,23.46
2022-08-11T20:10:33.174Z,23.31
2022-08-11T20:13:21.314Z,23.56
2022-08-11T20:16:07.965Z,23.28
2022-08-11T20:18:53.925Z,23.62
2022-08-11T20:21:40.131Z,23.84
2022-08-11T20:24:26.243Z,23.60
2022-08-11T20:27:19.011Z,23.54
2022-08-11T20:30:10.740Z,23.63
2022-08-11T20:32:56.942Z,23.49
2022-08-11T20:35:43.029Z,23.38
2022-08-11T20:38:29.119Z,23.46
2022-08-11T20:41:16.325Z,24.03
2022-08-11T20:44:06.058Z,23.77
2022-08-11T20:46:57.013Z,23.78
2022-08-11T20:49:47.839Z,24.00
2022-08-11T20:52:40.585Z,24.05
2022-08-11T20:55:45.701Z,24.09
2022-08-11T20:59:01.102Z,24.30
2022-08-11T21:01:41.154Z,23.91
2022-08-11T21:04:28.006Z,23.96
2022-08-11T21:07:15.182Z,23.93
2022-08-11T21:10:23.763Z,24.04
2022-08-11T21:13:25.209Z,23.38
2022-08-11T21:16:26.001Z,24.27
2022-08-11T21:20:00.245Z,24.37
2022-08-11T21:22:28.015Z,24.32
2022-08-11T21:25:15.527Z,24.57
2022-08-11T21:28:01.670Z,24.61
2022-08-11T21:30:47.935Z,24.79
2022-08-11T21:33:33.888Z,24.80
2022-08-11T21:36:20.150Z,25.12
2022-08-11T21:39:06.103Z,25.57
2022-08-11T21:41:52.191Z,25.23
2022-08-11T21:44:38.176Z,25.45
2022-08-11T21:47:42.989Z,25.31
2022-08-11T21:50:29.851Z,25.39
2022-08-11T21:53:16.765Z,25.47
2022-08-11T21:56:02.633Z,25.54
2022-08-11T21:58:49.462Z,25.46
2022-08-11T22:01:35.571Z,25.40
2022-08-11T22:04:22.339Z,25.14
2022-08-11T22:07:08.810Z,24.96
2022-08-11T22:09:55.059Z,26.01
2022-08-11T22:12:44.664Z,25.67
2022-08-11T22:15:31.601Z,25.66
2022-08-11T22:18:18.679Z,25.61
2022-08-11T22:21:04.949Z,25.83
2022-08-11T22:23:51.832Z,25.42
2022-08-11T22:26:39.669Z,25.34
2022-08-11T22:29:38.296Z,25.42
2022-08-11T22:32:34.829Z,25.72
2022-08-11T22:35:20.762Z,25.67
2022-08-11T22:38:06.945Z,25.59
2022-08-11T22:40:52.834Z,25.33
2022-08-11T22:43:39.032Z,26.02
2022-08-11T22:46:24.895Z,25.84
2022-08-11T22:49:11.105Z,25.50
2022-08-11T22:51:57.125Z,26.37
2022-08-11T22:54:43.438Z,25.84
2022-08-11T22:57:29.247Z,26.68
2022-08-11T23:00:15.492Z,27.04
2022-08-11T23:03:01.376Z,26.96
2022-08-11T23:05:47.610Z,27.52
2022-08-11T23:08:33.740Z,27.40
2022-08-11T23:11:19.871Z,26.81
2022-08-11T23:14:05.716Z,26.03
2022-08-11T23:16:51.757Z,26.21
2022-08-11T23:20:08.228Z,26.86
2022-08-11T23:22:49.892Z,26.74
2022-08-11T23:25:36.537Z,26.67
2022-08-11T23:28:22.882Z,26.57
2022-08-11T23:31:09.965Z,26.43
2022-08-11T23:33:56.049Z,26.19
2022-08-11T23:36:47.649Z,25.94
2022-08-11T23:39:34.892Z,26.08
2022-08-11T23:42:24.111Z,26.31
2022-08-11T23:45:10.480Z,26.31
2022-08-11T23:47:57.343Z,26.36
2022-08-11T23:50:43.593Z,26.08
2022-08-11T23:53:29.758Z,26.57
2022-08-11T23:56:16.154Z,26.57
2022-08-11T23:59:03.305Z,26.38
